createdAt,value
2022-11-23T00:01:15.682Z,19.23
2022-11-23T00:03:43.721Z,20.50
2022-11-23T00:06:11.558Z,19.20
2022-11-23T00:08:39.619Z,19.57
2022-11-23T00:11:09.187Z,19.17
2022-11-23T00:13:40.124Z,21.97
2022-11-23T00:16:08.544Z,17.40
2022-11-23T00:18:36.584Z,18.60
2022-11-23T00:21:07.928Z,19.33
2022-11-23T00:23:35.852Z,20.83
2022-11-23T00:26:04.717Z,20.77
2022-11-23T00:28:34.934Z,19.13
2022-11-23T00:31:02.684Z,19.40
2022-11-23T00:33:30.403Z,19.60
2022-11-23T00:36:02.494Z,18.27
2022-11-23T00:38:30.395Z,19.27
2022-11-23T00:41:02.211Z,20.97
2022-11-23T00:43:30.633Z,19.47
2022-11-23T00:46:08.713Z,20.37
2022-11-23T00:48:37.063Z,19.23
2022-11-23T00:51:06.701Z,17.90
2022-11-23T00:53:34.651Z,11.73
2022-11-23T00:56:02.470Z,18.57
2022-11-23T00:58:30.209Z,19.57
2022-11-23T01:01:03.355Z,17.77
2022-11-23T01:03:32.908Z,17.63
2022-11-23T01:06:05.221Z,18.17
2022-11-23T01:08:33.133Z,20.17
2022-11-23T01:11:02.698Z,18.27
2022-11-23T01:13:31.171Z,17.60
2022-11-23T01:16:00.080Z,17.83
2022-11-23T01:18:27.806Z,19.80
2022-11-23T01:20:56.874Z,18.77
2022-11-23T01:23:24.549Z,17.53
2022-11-23T01:25:56.783Z,20.90
2022-11-23T01:28:25.030Z,16.30
2022-11-23T01:30:52.719Z,14.53
2022-11-23T01:33:20.453Z,18.23
2022-11-23T01:35:48.196Z,18.47
2022-11-23T01:38:18.499Z,19.10
2022-11-23T01:40:46.436Z,19.87
2022-11-23T01:43:17.190Z,19.83
2022-11-23T01:45:54.548Z,20.47
2022-11-23T01:48:27.030Z,17.97
2022-11-23T01:50:57.515Z,18.47
2022-11-23T01:53:28.324Z,16.00
2022-11-23T01:56:01.120Z,19.97
2022-11-23T01:58:32.767Z,18.87
2022-11-23T02:01:00.690Z,17.83
2022-11-23T02:03:30.445Z,20.93
2022-11-23T02:06:02.296Z,21.00
2022-11-23T02:08:32.576Z,19.53
2022-11-23T02:11:01.297Z,17.73
2022-11-23T02:13:30.287Z,20.93
2022-11-23T02:15:59.456Z,18.33
2022-11-23T02:18:30.432Z,17.83
2022-11-23T02:21:00.264Z,17.47
2022-11-23T02:23:35.512Z,19.97
2022-11-23T02:26:07.721Z,17.70
2022-11-23T02:28:39.487Z,20.00
2022-11-23T02:31:07.255Z,17.07
2022-11-23T02:33:35.044Z,18.90
2022-11-23T02:36:03.139Z,18.27
2022-11-23T02:38:33.971Z,17.63
2022-11-23T02:41:01.721Z,17.30
2022-11-23T02:43:31.010Z,18.47
2022-11-23T02:46:02.407Z,17.77
2022-11-23T02:48:30.108Z,15.73
2022-11-23T02:50:57.885Z,17.97
2022-11-23T02:53:25.688Z,14.37
2022-11-23T02:55:53.387Z,15.20
2022-11-23T02:58:21.131Z,19.23
2022-11-23T03:00:50.290Z,14.50
2022-11-23T03:03:18.038Z,16.93
2022-11-23T03:05:46.348Z,19.10
2022-11-23T03:08:14.089Z,19.70
2022-11-23T03:10:41.794Z,14.17
2022-11-23T03:13:09.511Z,17.23
2022-11-23T03:15:37.293Z,16.27
2022-11-23T03:18:06.478Z,18.13
2022-11-23T03:20:34.225Z,18.33
2022-11-23T03:23:01.944Z,16.60
2022-11-23T03:25:29.651Z,16.67
2022-11-23T03:27:57.389Z,18.87
2022-11-23T03:30:25.096Z,16.63
2022-11-23T03:32:52.817Z,18.30
2022-11-23T03:35:21.856Z,19.43
2022-11-23T03:37:49.604Z,16.83
2022-11-23T03:40:17.461Z,17.97
2022-11-23T03:42:45.199Z,19.67
2022-11-23T03:45:12.989Z,19.33
2022-11-23T03:47:40.705Z,20.43
2022-11-23T03:50:09.307Z,18.93
2022-11-23T03:52:38.382Z,20.53
2022-11-23T03:55:07.022Z,19.63
2022-11-23T03:57:34.794Z,19.70
2022-11-23T04:00:02.508Z,19.50
2022-11-23T04:02:30.270Z,20.17
2022-11-23T04:04:57.999Z,19.33
2022-11-23T04:07:25.768Z,17.97
2022-11-23T04:09:54.854Z,18.40
2022-11-23T04:12:22.585Z,16.53
2022-11-23T04:14:50.307Z,18.20
2022-11-23T04:17:18.001Z,22.17
2022-11-23T04:19:45.826Z,19.23
2022-11-23T04:22:13.546Z,21.80
2022-11-23T04:24:41.276Z,18.70
2022-11-23T04:27:10.401Z,26.73
2022-11-23T04:29:38.147Z,23.50
2022-11-23T04:32:06.335Z,19.20
2022-11-23T04:34:34.059Z,21.13
2022-11-23T04:37:01.766Z,19.57
2022-11-23T04:39:29.960Z,22.03
2022-11-23T04:41:57.990Z,19.73
2022-11-23T04:44:27.125Z,20.70
2022-11-23T04:46:54.940Z,20.60
2022-11-23T04:49:22.652Z,19.80
2022-11-23T04:51:50.382Z,19.97
2022-11-23T04:54:18.091Z,21.83
2022-11-23T04:56:45.815Z,20.07
2022-11-23T04:59:13.617Z,20.50
2022-11-23T05:01:42.673Z,20.03
2022-11-23T05:04:14.826Z,28.53
2022-11-23T05:06:45.248Z,22.23
2022-11-23T05:09:13.492Z,21.13
2022-11-23T05:11:41.477Z,20.17
2022-11-23T05:14:09.260Z,21.07
2022-11-23T05:16:37.011Z,21.97
2022-11-23T05:19:06.078Z,21.63
2022-11-23T05:21:33.803Z,21.67
2022-11-23T05:24:01.535Z,22.67
2022-11-23T05:26:29.231Z,23.10
2022-11-23T05:28:56.947Z,21.73
2022-11-23T05:31:24.702Z,24.37
2022-11-23T05:33:52.444Z,20.00
2022-11-23T05:36:21.513Z,21.40
2022-11-23T05:38:49.207Z,19.07
2022-11-23T05:41:16.929Z,20.30
2022-11-23T05:43:44.681Z,23.27
2022-11-23T05:46:12.650Z,21.40
2022-11-23T05:48:40.838Z,21.07
2022-11-23T05:51:08.633Z,22.80
2022-11-23T05:53:37.712Z,18.93
2022-11-23T05:56:05.795Z,21.17
2022-11-23T05:58:33.537Z,23.77
2022-11-23T06:01:01.875Z,22.27
2022-11-23T06:03:29.864Z,22.80
2022-11-23T06:05:57.923Z,23.40
2022-11-23T06:08:25.646Z,22.80
2022-11-23T06:10:54.724Z,20.60
2022-11-23T06:13:22.433Z,22.70
2022-11-23T06:15:50.190Z,23.30
2022-11-23T06:18:17.918Z,23.00
2022-11-23T06:20:45.659Z,21.60
2022-11-23T06:23:13.379Z,23.87
2022-11-23T06:25:41.280Z,23.97
2022-11-23T06:28:10.426Z,23.03
2022-11-23T06:30:38.157Z,22.60
2022-11-23T06:33:06.305Z,23.00
2022-11-23T06:35:33.998Z,22.20
2022-11-23T06:38:01.848Z,21.20
2022-11-23T06:40:29.801Z,20.03
2022-11-23T06:42:59.736Z,22.00
2022-11-23T06:45:28.884Z,22.67
2022-11-23T06:47:57.427Z,21.97
2022-11-23T06:50:25.230Z,24.07
2022-11-23T06:52:56.504Z,22.17
2022-11-23T06:55:24.705Z,24.43
2022-11-23T06:57:52.868Z,22.33
2022-11-23T07:00:21.508Z,23.37
2022-11-23T07:02:54.554Z,22.20
2022-11-23T07:05:23.080Z,22.40
2022-11-23T07:07:51.100Z,21.67
2022-11-23T07:10:19.576Z,22.30
2022-11-23T07:12:47.878Z,21.87
2022-11-23T07:15:15.786Z,22.37
2022-11-23T07:17:44.460Z,22.57
2022-11-23T07:20:14.640Z,24.03
2022-11-23T07:22:42.550Z,21.77
2022-11-23T07:25:11.519Z,22.23
2022-11-23T07:27:39.290Z,21.20
2022-11-23T07:30:08.400Z,20.13
2022-11-23T07:32:36.087Z,21.53
2022-11-23T07:35:03.805Z,23.00
2022-11-23T07:37:32.878Z,21.80
2022-11-23T07:40:01.198Z,20.50
2022-11-23T07:42:36.821Z,21.00
2022-11-23T07:45:09.301Z,21.33
2022-11-23T07:47:37.141Z,20.40
2022-11-23T07:50:05.700Z,21.73
2022-11-23T07:52:35.779Z,18.60
2022-11-23T07:55:03.584Z,20.67
2022-11-23T07:57:31.463Z,18.87
2022-11-23T07:59:59.181Z,21.07
2022-11-23T08:02:27.230Z,22.33
2022-11-23T08:04:55.544Z,20.60
2022-11-23T08:07:23.310Z,21.77
2022-11-23T08:09:52.434Z,20.83
2022-11-23T08:12:20.172Z,21.97
2022-11-23T08:14:47.910Z,22.30
2022-11-23T08:17:15.669Z,18.70
2022-11-23T08:19:43.415Z,18.40
2022-11-23T08:22:15.502Z,20.20
2022-11-23T08:24:43.625Z,19.13
2022-11-23T08:27:12.732Z,19.63
2022-11-23T08:29:40.464Z,18.97
2022-11-23T08:32:08.186Z,19.57
2022-11-23T08:34:35.936Z,19.40
2022-11-23T08:37:03.706Z,21.13
2022-11-23T08:39:31.406Z,20.47
2022-11-23T08:41:59.127Z,22.50
2022-11-23T08:44:28.495Z,19.33
2022-11-23T08:46:56.218Z,19.83
2022-11-23T08:49:23.946Z,19.83
2022-11-23T08:51:51.673Z,18.17
2022-11-23T08:54:19.362Z,20.30
2022-11-23T08:56:47.125Z,18.77
2022-11-23T08:59:14.854Z,19.57
2022-11-23T09:01:44.284Z,19.23
2022-11-23T09:04:16.409Z,19.23
2022-11-23T09:06:47.001Z,17.30
2022-11-23T09:09:14.722Z,19.67
2022-11-23T09:11:42.427Z,18.40
2022-11-23T09:14:10.135Z,18.63
2022-11-23T09:16:37.930Z,19.93
2022-11-23T09:19:08.157Z,17.33
2022-11-23T09:21:39.113Z,17.73
2022-11-23T09:24:07.219Z,18.33
2022-11-23T09:26:34.954Z,19.23
2022-11-23T09:29:02.719Z,20.87
2022-11-23T09:31:30.488Z,18.93
2022-11-23T09:33:58.217Z,19.37
2022-11-23T09:36:27.565Z,19.57
2022-11-23T09:38:57.341Z,17.63
2022-11-23T09:41:48.825Z,18.83
2022-11-23T09:44:25.137Z,17.53
2022-11-23T09:47:07.983Z,18.03
2022-11-23T09:49:45.899Z,17.47
2022-11-23T09:52:19.383Z,17.90
2022-11-23T09:54:49.745Z,17.87
2022-11-23T09:57:21.842Z,17.27
2022-11-23T09:59:53.744Z,17.47
2022-11-23T10:02:23.644Z,16.97
2022-11-23T10:04:53.456Z,16.90
2022-11-23T10:07:35.596Z,16.77
2022-11-23T10:10:13.894Z,16.73
2022-11-23T10:12:52.896Z,18.93
2022-11-23T10:15:25.374Z,17.27
2022-11-23T10:18:07.845Z,16.97
2022-11-23T10:20:49.485Z,16.27
2022-11-23T10:23:31.759Z,14.83
2022-11-23T10:26:00.270Z,18.30
2022-11-23T10:28:32.702Z,16.90
2022-11-23T10:31:09.017Z,16.13
2022-11-23T10:33:44.135Z,16.50
2022-11-23T10:36:13.659Z,14.40
2022-11-23T10:38:43.471Z,17.57
2022-11-23T10:41:12.822Z,16.43
2022-11-23T10:43:46.356Z,16.47
2022-11-23T10:46:29.282Z,19.10
2022-11-23T10:49:08.907Z,17.00
2022-11-23T10:51:36.961Z,16.47
2022-11-23T10:54:08.182Z,16.47
2022-11-23T10:56:36.150Z,14.00
2022-11-23T10:59:03.926Z,16.70
2022-11-23T11:01:31.831Z,15.60
2022-11-23T11:04:04.406Z,14.73
2022-11-23T11:06:36.149Z,17.10
2022-11-23T11:09:12.279Z,16.10
2022-11-23T11:11:48.104Z,16.90
2022-11-23T11:14:17.917Z,16.70
2022-11-23T11:16:49.533Z,17.43
2022-11-23T11:19:29.278Z,17.33
2022-11-23T11:21:57.460Z,16.93
2022-11-23T11:24:32.654Z,16.50
2022-11-23T11:27:03.826Z,16.93
2022-11-23T11:29:39.154Z,14.73
2022-11-23T11:32:14.829Z,16.27
2022-11-23T11:34:50.457Z,16.80
2022-11-23T11:37:27.770Z,15.77
2022-11-23T11:39:59.860Z,15.07
2022-11-23T11:42:33.982Z,17.40
2022-11-23T11:45:04.726Z,15.57
2022-11-23T11:47:37.759Z,15.17
2022-11-23T11:50:20.352Z,16.10
2022-11-23T11:52:53.820Z,15.40
2022-11-23T11:55:28.139Z,15.07
2022-11-23T11:58:03.380Z,13.90
2022-11-23T12:00:35.185Z,13.73
2022-11-23T12:03:13.566Z,13.83
2022-11-23T12:05:47.948Z,13.17
2022-11-23T12:08:19.411Z,13.37
2022-11-23T12:10:53.011Z,13.23
2022-11-23T12:13:23.427Z,14.40
2022-11-23T12:15:57.638Z,13.77
2022-11-23T12:18:40.882Z,12.97
2022-11-23T12:21:22.307Z,14.20
2022-11-23T12:24:01.047Z,13.70
2022-11-23T12:26:38.925Z,12.33
2022-11-23T12:29:27.153Z,12.87
2022-11-23T12:32:03.716Z,13.47
2022-11-23T12:34:58.104Z,12.23
2022-11-23T12:37:49.323Z,13.27
2022-11-23T12:40:30.820Z,11.67
2022-11-23T12:43:03.812Z,13.70
2022-11-23T12:45:46.581Z,12.97
2022-11-23T12:48:27.216Z,13.20
2022-11-23T12:51:05.987Z,13.67
2022-11-23T12:53:48.527Z,12.73
2022-11-23T12:56:26.609Z,13.40
2022-11-23T12:58:57.683Z,12.80
2022-11-23T13:01:32.157Z,13.30
2022-11-23T13:04:38.236Z,13.40
2022-11-23T13:07:30.271Z,13.20
2022-11-23T13:10:31.562Z,13.53
2022-11-23T13:13:15.964Z,13.00
2022-11-23T13:16:25.925Z,14.00
2022-11-23T13:19:11.863Z,12.53
2022-11-23T13:21:42.099Z,13.63
2022-11-23T13:24:25.523Z,13.00
2022-11-23T13:27:31.542Z,13.67
2022-11-23T13:30:01.277Z,14.37
2022-11-23T13:32:43.559Z,13.60
2022-11-23T13:35:44.646Z,14.03
2022-11-23T13:38:27.662Z,13.97
2022-11-23T13:40:56.719Z,13.13
2022-11-23T13:43:27.502Z,13.90
2022-11-23T13:46:28.682Z,13.93
2022-11-23T13:48:59.451Z,13.50
2022-11-23T13:51:29.609Z,14.00
2022-11-23T13:54:02.586Z,14.57
2022-11-23T13:56:35.103Z,13.23
2022-11-23T13:59:28.897Z,14.50
2022-11-23T14:02:18.140Z,14.77
2022-11-23T14:04:48.268Z,14.67
2022-11-23T14:07:20.457Z,14.23
2022-11-23T14:09:55.468Z,13.63
2022-11-23T14:12:31.203Z,13.97
2022-11-23T14:15:04.943Z,16.00
2022-11-23T14:18:07.763Z,15.13
2022-11-23T14:20:50.682Z,15.00
2022-11-23T14:23:47.713Z,16.47
2022-11-23T14:26:25.537Z,15.03
2022-11-23T14:29:09.882Z,16.17
2022-11-23T14:31:46.684Z,16.23
2022-11-23T14:34:24.814Z,14.20
2022-11-23T14:37:00.489Z,13.33
2022-11-23T14:39:54.525Z,15.50
2022-11-23T14:42:27.880Z,14.80
2022-11-23T14:44:57.248Z,14.40
2022-11-23T14:47:30.088Z,13.67
2022-11-23T14:49:58.990Z,14.70
2022-11-23T14:52:29.737Z,14.50
2022-11-23T14:54:59.759Z,15.13
2022-11-23T14:57:35.794Z,13.93
2022-11-23T15:00:10.186Z,14.13
2022-11-23T15:02:42.177Z,14.07
2022-11-23T15:05:19.040Z,14.33
2022-11-23T15:07:53.168Z,14.50
2022-11-23T15:10:34.052Z,15.50
2022-11-23T15:13:03.213Z,15.23
2022-11-23T15:15:33.146Z,16.67
2022-11-23T15:18:02.436Z,15.57
2022-11-23T15:20:34.273Z,16.13
2022-11-23T15:23:02.650Z,15.33
2022-11-23T15:25:31.152Z,15.67
2022-11-23T15:27:59.355Z,15.27
2022-11-23T15:30:31.261Z,17.13
2022-11-23T15:33:00.261Z,16.30
2022-11-23T15:35:33.049Z,19.57
2022-11-23T15:38:02.465Z,16.70
2022-11-23T15:40:33.601Z,17.80
2022-11-23T15:43:01.575Z,16.60
2022-11-23T15:45:59.591Z,18.10
2022-11-23T15:48:30.892Z,16.80
2022-11-23T15:51:00.852Z,18.63
2022-11-23T15:53:30.732Z,17.43
2022-11-23T15:56:02.595Z,17.80
2022-11-23T15:58:32.077Z,18.87
2022-11-23T16:01:08.779Z,18.97
2022-11-23T16:03:42.811Z,17.43
2022-11-23T16:06:25.638Z,16.93
2022-11-23T16:08:53.381Z,17.37
2022-11-23T16:11:24.126Z,17.90
2022-11-23T16:13:51.884Z,18.27
2022-11-23T16:16:23.434Z,20.47
2022-11-23T16:18:56.787Z,24.63
2022-11-23T16:21:25.990Z,19.33
2022-11-23T16:23:56.764Z,19.53
2022-11-23T16:26:31.156Z,21.23
2022-11-23T16:29:00.322Z,19.43
2022-11-23T16:31:31.507Z,18.27
2022-11-23T16:33:59.224Z,18.60
2022-11-23T16:36:28.654Z,18.00
2022-11-23T16:38:58.581Z,19.17
2022-11-23T16:41:30.225Z,19.70
2022-11-23T16:43:57.901Z,20.00
2022-11-23T16:46:25.897Z,19.43
2022-11-23T16:48:57.352Z,18.97
2022-11-23T16:51:25.085Z,19.37
2022-11-23T16:54:13.082Z,21.93
2022-11-23T16:56:41.708Z,19.33
2022-11-23T16:59:16.814Z,20.07
2022-11-23T17:01:46.063Z,19.93
2022-11-23T17:04:18.474Z,21.63
2022-11-23T17:06:46.300Z,20.27
2022-11-23T17:09:14.544Z,19.47
2022-11-23T17:11:45.648Z,19.30
2022-11-23T17:14:19.366Z,20.93
2022-11-23T17:16:48.405Z,19.97
2022-11-23T17:19:19.213Z,19.17
2022-11-23T17:21:46.975Z,19.23
2022-11-23T17:24:15.282Z,20.50
2022-11-23T17:26:47.581Z,20.10
2022-11-23T17:29:19.528Z,21.47
2022-11-23T17:31:47.455Z,21.37
2022-11-23T17:34:16.074Z,22.53
2022-11-23T17:36:47.298Z,21.00
2022-11-23T17:39:20.194Z,21.30
2022-11-23T17:41:49.371Z,22.23
2022-11-23T17:44:17.958Z,20.07
2022-11-23T17:46:47.022Z,20.43
2022-11-23T17:49:17.727Z,21.00
2022-11-23T17:51:47.572Z,20.67
2022-11-23T17:54:15.318Z,23.17
2022-11-23T17:56:43.242Z,21.43
2022-11-23T17:59:11.028Z,20.47
2022-11-23T18:01:38.825Z,22.63
2022-11-23T18:04:06.864Z,21.57
2022-11-23T18:06:34.606Z,22.97
2022-11-23T18:09:04.446Z,21.40
2022-11-23T18:11:32.861Z,21.97
2022-11-23T18:14:01.466Z,21.13
2022-11-23T18:16:29.618Z,22.10
2022-11-23T18:18:57.941Z,22.30
2022-11-23T18:21:26.203Z,22.63
2022-11-23T18:23:54.194Z,20.40
2022-11-23T18:26:25.651Z,21.40
2022-11-23T18:28:53.841Z,21.43
2022-11-23T18:31:21.668Z,21.83
2022-11-23T18:33:49.385Z,21.80
2022-11-23T18:36:17.328Z,22.60
2022-11-23T18:38:45.832Z,22.83
2022-11-23T18:41:16.382Z,22.00
2022-11-23T18:43:46.492Z,22.03
2022-11-23T18:46:19.170Z,21.17
2022-11-23T18:48:47.845Z,21.90
2022-11-23T18:51:16.468Z,21.90
2022-11-23T18:53:47.385Z,22.20
2022-11-23T18:56:15.271Z,23.47
2022-11-23T18:58:46.147Z,22.07
2022-11-23T19:01:15.499Z,22.57
2022-11-23T19:03:43.463Z,20.97
2022-11-23T19:06:13.654Z,20.13
2022-11-23T19:08:42.925Z,20.20
2022-11-23T19:11:15.821Z,20.83
2022-11-23T19:13:45.145Z,21.03
2022-11-23T19:16:15.146Z,22.13
2022-11-23T19:18:43.023Z,22.30
2022-11-23T19:21:15.367Z,19.60
2022-11-23T19:23:43.748Z,20.20
2022-11-23T19:26:11.925Z,18.30
2022-11-23T19:28:44.471Z,21.67
2022-11-23T19:31:15.676Z,20.83
2022-11-23T19:33:44.093Z,19.57
2022-11-23T19:36:15.144Z,21.17
2022-11-23T19:38:42.916Z,19.37
2022-11-23T19:41:11.296Z,21.27
2022-11-23T19:43:39.338Z,21.60
2022-11-23T19:46:08.803Z,21.77
2022-11-23T19:48:38.962Z,20.23
2022-11-23T19:51:08.798Z,20.63
2022-11-23T19:53:38.339Z,20.80
2022-11-23T19:56:09.493Z,20.93
2022-11-23T19:58:37.229Z,20.83
2022-11-23T20:01:08.975Z,20.47
2022-11-23T20:03:39.734Z,20.67
2022-11-23T20:06:10.949Z,20.37
2022-11-23T20:08:38.975Z,21.73
2022-11-23T20:11:08.594Z,21.03
2022-11-23T20:13:36.700Z,21.27
2022-11-23T20:16:05.705Z,21.80
2022-11-23T20:18:33.722Z,22.07
2022-11-23T20:21:02.865Z,20.70
2022-11-23T20:23:30.628Z,48.40
2022-11-23T20:25:58.955Z,23.43
2022-11-23T20:28:26.986Z,21.20
2022-11-23T20:30:54.728Z,20.33
2022-11-23T20:33:22.536Z,21.97
2022-11-23T20:35:50.569Z,19.07
2022-11-23T20:38:19.687Z,21.70
2022-11-23T20:40:47.413Z,20.67
2022-11-23T20:43:15.124Z,19.83
2022-11-23T20:45:42.805Z,20.87
2022-11-23T20:48:10.768Z,20.53
2022-11-23T20:50:38.634Z,19.67
2022-11-23T20:53:06.366Z,20.30
2022-11-23T20:55:36.582Z,18.60
2022-11-23T20:58:04.310Z,21.10
2022-11-23T21:00:32.034Z,19.30
2022-11-23T21:02:59.806Z,19.03
2022-11-23T21:05:27.804Z,20.13
2022-11-23T21:07:55.634Z,16.87
2022-11-23T21:10:41.030Z,18.47
2022-11-23T21:13:37.190Z,19.03
2022-11-23T21:16:16.645Z,18.83
2022-11-23T21:18:44.391Z,16.90
2022-11-23T21:21:12.140Z,19.20
2022-11-23T21:23:39.881Z,17.70
2022-11-23T21:26:08.087Z,19.30
2022-11-23T21:28:37.193Z,19.53
2022-11-23T21:31:09.261Z,19.60
2022-11-23T21:33:37.414Z,17.70
2022-11-23T21:36:06.163Z,17.17
2022-11-23T21:38:36.111Z,18.10
2022-11-23T21:41:04.552Z,18.03
2022-11-23T21:43:33.004Z,18.37
2022-11-23T21:46:02.966Z,18.10
2022-11-23T21:48:31.042Z,17.50
2022-11-23T21:51:02.972Z,19.10
2022-11-23T21:53:31.592Z,17.53
2022-11-23T21:56:03.139Z,17.20
2022-11-23T21:58:31.272Z,15.67
2022-11-23T22:01:08.785Z,18.80
2022-11-23T22:03:40.025Z,16.83
2022-11-23T22:06:08.838Z,18.37
2022-11-23T22:08:40.772Z,17.37
2022-11-23T22:11:15.456Z,17.90
2022-11-23T22:13:44.309Z,18.40
2022-11-23T22:16:15.446Z,18.53
2022-11-23T22:18:43.185Z,16.80
2022-11-23T22:21:11.224Z,19.57
2022-11-23T22:23:39.837Z,18.00
2022-11-23T22:26:09.630Z,16.43
2022-11-23T22:28:38.827Z,19.37
2022-11-23T22:31:08.071Z,17.40
2022-11-23T22:33:37.795Z,19.33
2022-11-23T22:36:07.315Z,18.33
2022-11-23T22:38:35.618Z,17.07
2022-11-23T22:41:04.733Z,18.77
2022-11-23T22:43:32.683Z,18.37
2022-11-23T22:46:05.675Z,19.57
2022-11-23T22:48:33.808Z,17.87
2022-11-23T22:51:03.651Z,19.03
2022-11-23T22:53:32.238Z,17.93
2022-11-23T22:56:02.739Z,17.23
2022-11-23T22:58:30.655Z,18.23
2022-11-23T23:00:59.116Z,18.10
2022-11-23T23:03:26.914Z,15.80
2022-11-23T23:05:55.639Z,16.83
2022-11-23T23:08:25.809Z,17.57
2022-11-23T23:10:53.805Z,17.57
2022-11-23T23:13:22.562Z,18.47
2022-11-23T23:15:50.302Z,18.13
2022-11-23T23:18:18.667Z,15.53
2022-11-23T23:20:46.365Z,18.43
2022-11-23T23:23:14.121Z,17.27
2022-11-23T23:25:43.449Z,18.33
2022-11-23T23:28:11.142Z,18.40
2022-11-23T23:30:38.868Z,18.70
2022-11-23T23:33:06.581Z,19.80
2022-11-23T23:35:36.413Z,19.53
2022-11-23T23:38:04.496Z,19.60
2022-11-23T23:40:32.243Z,18.33
2022-11-23T23:43:01.330Z,19.67
2022-11-23T23:45:29.133Z,18.37
2022-11-23T23:47:58.232Z,18.47
2022-11-23T23:50:25.956Z,19.00
2022-11-23T23:52:53.846Z,18.40
2022-11-23T23:55:21.642Z,17.50
2022-11-23T23:57:49.392Z,19.40
